createdAt,value
2018-01-03T00:01:18.534Z,91.80
2018-01-03T00:03:45.985Z,91.80
2018-01-03T00:06:13.458Z,91.70
2018-01-03T00:08:40.992Z,91.80
2018-01-03T00:11:08.450Z,91.70
2018-01-03T00:13:35.907Z,91.70
2018-01-03T00:16:03.425Z,91.70
2018-01-03T00:18:31.693Z,91.60
2018-01-03T00:20:59.143Z,91.60
2018-01-03T00:23:26.619Z,91.70
2018-01-03T00:25:54.880Z,91.40
2018-01-03T00:28:22.327Z,91.40
2018-01-03T00:30:49.783Z,91.40
2018-01-03T00:33:17.353Z,91.50
2018-01-03T00:35:44.809Z,91.50
2018-01-03T00:38:12.298Z,91.50
2018-01-03T00:40:39.828Z,91.60
2018-01-03T00:43:07.273Z,91.70
2018-01-03T00:45:34.748Z,91.60
2018-01-03T00:48:02.977Z,91.50
2018-01-03T00:50:30.441Z,91.50
2018-01-03T00:52:57.925Z,91.40
2018-01-03T00:55:25.389Z,91.50
2018-01-03T00:57:52.843Z,91.60
2018-01-03T01:00:21.063Z,92.00
2018-01-03T01:02:48.537Z,91.50
2018-01-03T01:05:15.997Z,91.50
2018-01-03T01:07:43.443Z,91.40
2018-01-03T01:10:10.913Z,91.40
2018-01-03T01:12:38.376Z,91.40
2018-01-03T01:15:05.862Z,91.20
2018-01-03T01:17:33.412Z,91.30
2018-01-03T01:20:00.869Z,91.30
2018-01-03T01:22:28.444Z,91.10
2018-01-03T01:24:56.676Z,91.30
2018-01-03T01:27:24.133Z,91.30
2018-01-03T01:29:51.618Z,91.40
2018-01-03T01:32:19.205Z,91.50
2018-01-03T01:34:46.631Z,91.50
2018-01-03T01:37:14.083Z,91.30
2018-01-03T01:39:41.569Z,91.40
2018-01-03T01:42:09.831Z,91.30
2018-01-03T01:44:38.044Z,91.60
2018-01-03T01:47:05.505Z,91.30
2018-01-03T01:49:32.965Z,91.20
2018-01-03T01:52:00.461Z,91.20
2018-01-03T01:54:27.916Z,91.40
2018-01-03T01:56:56.203Z,91.50
2018-01-03T01:59:23.749Z,91.70
2018-01-03T02:01:51.220Z,91.30
2018-01-03T02:04:18.674Z,91.20
2018-01-03T02:06:46.228Z,91.30
2018-01-03T02:09:13.679Z,91.60
2018-01-03T02:11:41.153Z,91.30
2018-01-03T02:14:09.376Z,91.30
2018-01-03T02:16:36.879Z,91.30
2018-01-03T02:19:05.098Z,91.70
2018-01-03T02:21:32.658Z,91.30
2018-01-03T02:24:00.112Z,91.20
2018-01-03T02:26:27.577Z,91.30
2018-01-03T02:28:55.073Z,91.20
2018-01-03T02:31:22.641Z,91.10
2018-01-03T02:33:50.194Z,91.10
2018-01-03T02:36:17.652Z,91.20
2018-01-03T02:38:45.208Z,91.20
2018-01-03T02:41:12.664Z,91.10
2018-01-03T02:43:40.220Z,91.00
2018-01-03T02:46:07.686Z,91.10
2018-01-03T02:48:35.241Z,91.20
2018-01-03T02:51:02.692Z,91.10
2018-01-03T02:53:30.920Z,91.10
2018-01-03T02:55:58.364Z,91.00
2018-01-03T02:58:25.832Z,91.10
2018-01-03T03:00:53.339Z,91.00
2018-01-03T03:03:20.801Z,91.30
2018-01-03T03:05:48.254Z,91.10
2018-01-03T03:08:15.741Z,91.10
2018-01-03T03:10:43.192Z,91.10
2018-01-03T03:13:11.420Z,90.90
2018-01-03T03:15:38.898Z,90.90
2018-01-03T03:18:06.361Z,90.90
2018-01-03T03:20:33.863Z,91.00
2018-01-03T03:23:01.308Z,91.50
2018-01-03T03:25:28.777Z,91.00
2018-01-03T03:27:56.232Z,90.90
2018-01-03T03:30:23.700Z,90.80
2018-01-03T03:32:51.148Z,90.80
2018-01-03T03:35:18.705Z,90.90
2018-01-03T03:37:46.160Z,90.90
2018-01-03T03:40:13.623Z,90.90
2018-01-03T03:42:41.088Z,90.70
2018-01-03T03:45:08.568Z,90.70
2018-01-03T03:47:36.016Z,90.50
2018-01-03T03:50:03.477Z,90.60
2018-01-03T03:52:30.932Z,90.60
2018-01-03T03:54:58.387Z,90.60
2018-01-03T03:57:25.863Z,90.60
2018-01-03T03:59:53.324Z,90.50
2018-01-03T04:02:20.828Z,90.30
2018-01-03T04:04:48.289Z,90.40
2018-01-03T04:07:15.748Z,90.10
2018-01-03T04:09:43.212Z,90.30
2018-01-03T04:12:10.706Z,90.30
2018-01-03T04:14:38.173Z,90.30
2018-01-03T04:17:06.396Z,90.70
2018-01-03T04:19:33.847Z,90.30
2018-01-03T04:22:01.352Z,90.30
2018-01-03T04:24:28.826Z,90.30
2018-01-03T04:26:57.048Z,90.60
2018-01-03T04:29:24.536Z,90.50
2018-01-03T04:31:52.001Z,90.70
2018-01-03T04:34:19.556Z,90.70
2018-01-03T04:36:47.034Z,90.60
2018-01-03T04:39:15.288Z,90.80
2018-01-03T04:41:42.849Z,90.80
2018-01-03T04:44:10.407Z,90.90
2018-01-03T04:46:37.969Z,91.10
2018-01-03T04:49:05.531Z,91.10
2018-01-03T04:51:33.751Z,91.10
2018-01-03T04:54:01.212Z,91.30
2018-01-03T04:56:28.715Z,91.40
2018-01-03T04:58:56.168Z,91.50
2018-01-03T05:01:23.648Z,91.70
2018-01-03T05:03:51.876Z,91.80
2018-01-03T05:06:19.324Z,91.70
2018-01-03T05:08:46.788Z,91.70
2018-01-03T05:11:14.292Z,91.90
2018-01-03T05:13:42.531Z,91.90
2018-01-03T05:16:10.007Z,91.80
2018-01-03T05:18:37.465Z,92.10
2018-01-03T05:21:04.989Z,92.10
2018-01-03T05:23:32.445Z,92.30
2018-01-03T05:25:59.937Z,92.10
2018-01-03T05:28:27.499Z,92.00
2018-01-03T05:30:54.952Z,92.30
2018-01-03T05:33:22.403Z,92.20
2018-01-03T05:35:49.965Z,92.00
2018-01-03T05:38:17.521Z,92.60
2018-01-03T05:40:46.489Z,92.30
2018-01-03T05:43:13.939Z,92.30
2018-01-03T05:45:41.411Z,92.60
2018-01-03T05:48:08.859Z,92.60
2018-01-03T05:50:36.324Z,92.80
2018-01-03T05:53:03.792Z,93.10
2018-01-03T05:55:31.356Z,93.20
2018-01-03T05:57:58.917Z,93.30
2018-01-03T06:00:26.407Z,93.20
2018-01-03T06:02:53.870Z,93.50
2018-01-03T06:05:21.344Z,93.50
2018-01-03T06:07:48.845Z,93.50
2018-01-03T06:10:16.299Z,93.40
2018-01-03T06:12:43.761Z,93.40
2018-01-03T06:15:11.985Z,93.90
2018-01-03T06:17:39.453Z,93.60
2018-01-03T06:20:06.895Z,93.70
2018-01-03T06:22:34.403Z,93.50
2018-01-03T06:25:01.961Z,94.00
2018-01-03T06:27:29.415Z,94.40
2018-01-03T06:29:56.981Z,94.00
2018-01-03T06:32:24.536Z,94.20
2018-01-03T06:34:51.993Z,94.00
2018-01-03T06:37:19.456Z,94.20
2018-01-03T06:39:46.904Z,93.90
2018-01-03T06:42:14.463Z,94.70
2018-01-03T06:44:41.969Z,94.30
2018-01-03T06:47:09.436Z,94.40
2018-01-03T06:49:36.937Z,94.50
2018-01-03T06:52:05.210Z,94.60
2018-01-03T06:54:32.769Z,94.70
2018-01-03T06:57:00.224Z,94.80
2018-01-03T06:59:27.716Z,94.90
2018-01-03T07:01:55.197Z,95.00
2018-01-03T07:04:22.659Z,95.20
2018-01-03T07:06:50.156Z,95.20
2018-01-03T07:09:17.658Z,95.00
2018-01-03T07:11:45.121Z,94.80
2018-01-03T07:14:12.630Z,95.20
2018-01-03T07:16:40.169Z,95.20
2018-01-03T07:19:07.617Z,95.20
2018-01-03T07:21:35.078Z,95.30
2018-01-03T07:24:02.539Z,95.40
2018-01-03T07:26:30.099Z,95.50
2018-01-03T07:28:57.565Z,95.60
2018-01-03T07:31:25.026Z,95.50
2018-01-03T07:33:52.494Z,95.60
2018-01-03T07:36:20.715Z,95.50
2018-01-03T07:38:48.180Z,95.50
2018-01-03T07:41:15.627Z,95.60
2018-01-03T07:43:43.089Z,95.60
2018-01-03T07:46:10.540Z,95.50
2018-01-03T07:48:37.997Z,95.90
2018-01-03T07:51:05.457Z,95.80
2018-01-03T07:53:32.915Z,95.90
2018-01-03T07:56:00.371Z,96.10
2018-01-03T07:58:27.872Z,95.90
2018-01-03T08:00:55.407Z,96.00
2018-01-03T08:03:22.864Z,96.00
2018-01-03T08:05:50.323Z,96.10
2018-01-03T08:08:17.780Z,96.30
2018-01-03T08:10:45.341Z,96.10
2018-01-03T08:13:12.792Z,96.00
2018-01-03T08:15:40.280Z,96.10
2018-01-03T08:18:08.499Z,96.40
2018-01-03T08:20:36.007Z,96.00
2018-01-03T08:23:03.470Z,96.10
2018-01-03T08:25:31.689Z,96.00
2018-01-03T08:27:59.164Z,96.00
2018-01-03T08:30:26.605Z,96.10
2018-01-03T08:32:54.084Z,96.20
2018-01-03T08:35:21.535Z,96.10
2018-01-03T08:37:48.993Z,95.90
2018-01-03T08:40:16.519Z,96.30
2018-01-03T08:42:43.980Z,95.90
2018-01-03T08:45:11.480Z,96.10
2018-01-03T08:47:38.944Z,96.00
2018-01-03T08:50:06.405Z,96.20
2018-01-03T08:52:34.675Z,96.00
2018-01-03T08:55:02.235Z,96.00
2018-01-03T08:57:29.699Z,96.10
2018-01-03T08:59:57.158Z,96.30
2018-01-03T09:02:25.380Z,96.20
2018-01-03T09:04:52.931Z,96.10
2018-01-03T09:07:20.397Z,96.30
2018-01-03T09:09:47.847Z,96.50
2018-01-03T09:12:15.339Z,96.40
2018-01-03T09:14:42.916Z,96.10
2018-01-03T09:17:11.142Z,96.60
2018-01-03T09:19:38.595Z,96.20
2018-01-03T09:22:06.056Z,96.00
2018-01-03T09:24:33.545Z,96.20
2018-01-03T09:27:00.993Z,96.50
2018-01-03T09:29:28.453Z,96.30
2018-01-03T09:31:55.912Z,96.30
2018-01-03T09:34:23.369Z,96.30
2018-01-03T09:36:50.829Z,96.30
2018-01-03T09:39:18.341Z,96.20
2018-01-03T09:41:45.841Z,96.30
2018-01-03T09:44:13.292Z,96.20
2018-01-03T09:46:40.775Z,96.20
2018-01-03T09:49:08.997Z,95.90
2018-01-03T09:51:36.468Z,95.90
2018-01-03T09:54:03.919Z,95.90
2018-01-03T09:56:31.390Z,95.80
2018-01-03T09:58:58.835Z,95.90
2018-01-03T10:01:26.294Z,95.90
2018-01-03T10:03:53.752Z,96.00
2018-01-03T10:06:21.236Z,96.20
2018-01-03T10:08:48.702Z,96.40
2018-01-03T10:11:16.253Z,96.30
2018-01-03T10:13:43.700Z,96.30
2018-01-03T10:16:11.179Z,96.10
2018-01-03T10:18:39.405Z,95.90
2018-01-03T10:21:06.861Z,95.90
2018-01-03T10:23:34.354Z,96.00
2018-01-03T10:26:01.796Z,95.90
2018-01-03T10:28:29.260Z,96.00
2018-01-03T10:30:56.712Z,95.90
2018-01-03T10:33:24.263Z,96.50
2018-01-03T10:35:51.747Z,96.00
2018-01-03T10:38:19.284Z,96.00
2018-01-03T10:40:46.740Z,96.30
2018-01-03T10:43:14.322Z,95.90
2018-01-03T10:45:42.551Z,96.10
2018-01-03T10:48:09.997Z,95.90
2018-01-03T10:50:37.461Z,96.20
2018-01-03T10:53:04.923Z,96.10
2018-01-03T10:55:32.385Z,96.10
2018-01-03T10:57:59.836Z,95.80
2018-01-03T11:00:27.300Z,96.00
2018-01-03T11:02:54.799Z,95.80
2018-01-03T11:05:23.033Z,95.90
2018-01-03T11:07:50.495Z,95.90
2018-01-03T11:10:18.060Z,96.00
2018-01-03T11:12:45.521Z,95.80
2018-01-03T11:15:13.016Z,96.10
2018-01-03T11:17:40.572Z,96.10
2018-01-03T11:20:08.825Z,95.50
2018-01-03T11:22:36.267Z,95.50
2018-01-03T11:25:03.724Z,95.80
2018-01-03T11:27:31.181Z,95.70
2018-01-03T11:29:58.635Z,95.30
2018-01-03T11:32:26.096Z,95.50
2018-01-03T11:34:53.657Z,95.70
2018-01-03T11:37:21.133Z,95.40
2018-01-03T11:39:49.443Z,94.70
2018-01-03T11:42:16.904Z,94.70
2018-01-03T11:44:44.359Z,94.50
2018-01-03T11:47:11.834Z,94.00
2018-01-03T11:49:39.296Z,93.30
2018-01-03T11:52:06.788Z,94.00
2018-01-03T11:54:34.255Z,91.60
2018-01-03T11:57:02.501Z,87.40
2018-01-03T11:59:31.552Z,88.60
2018-01-03T12:01:59.072Z,88.50
2018-01-03T12:04:27.288Z,91.30
2018-01-03T12:06:54.765Z,91.20
2018-01-03T12:09:22.245Z,92.30
2018-01-03T12:11:49.722Z,92.80
2018-01-03T12:14:17.952Z,93.50
2018-01-03T12:16:45.435Z,93.50
2018-01-03T12:19:12.889Z,93.90
2018-01-03T12:21:40.373Z,92.50
2018-01-03T12:24:08.676Z,92.10
2018-01-03T12:26:36.141Z,92.10
2018-01-03T12:29:03.692Z,92.20
2018-01-03T12:31:31.193Z,91.70
2018-01-03T12:33:58.656Z,91.60
2018-01-03T12:36:26.126Z,91.00
2018-01-03T12:38:54.365Z,90.70
2018-01-03T12:41:21.820Z,90.70
2018-01-03T12:43:49.286Z,90.90
2018-01-03T12:46:16.748Z,90.20
2018-01-03T12:48:44.234Z,89.50
2018-01-03T12:51:12.455Z,87.20
2018-01-03T12:53:40.004Z,87.10
2018-01-03T12:56:07.472Z,87.80
2018-01-03T12:58:34.956Z,90.00
2018-01-03T13:01:02.408Z,90.40
2018-01-03T13:03:29.887Z,90.80
2018-01-03T13:05:57.443Z,91.00
2018-01-03T13:08:24.987Z,91.10
2018-01-03T13:10:52.536Z,91.10
2018-01-03T13:13:19.988Z,91.20
2018-01-03T13:15:47.500Z,91.20
2018-01-03T13:18:15.713Z,90.50
2018-01-03T13:20:43.177Z,90.40
2018-01-03T13:23:10.632Z,90.20
2018-01-03T13:25:38.105Z,87.90
2018-01-03T13:28:05.651Z,88.10
2018-01-03T13:30:33.108Z,87.80
2018-01-03T13:33:00.571Z,89.20
2018-01-03T13:35:28.168Z,89.30
2018-01-03T13:37:56.393Z,89.80
2018-01-03T13:40:23.862Z,89.70
2018-01-03T13:42:51.307Z,90.10
2018-01-03T13:45:18.773Z,89.90
2018-01-03T13:47:46.327Z,90.10
2018-01-03T13:50:13.788Z,89.50
2018-01-03T13:52:41.239Z,89.90
2018-01-03T13:55:08.708Z,88.70
2018-01-03T13:57:36.169Z,88.40
2018-01-03T14:00:03.629Z,87.90
2018-01-03T14:02:31.177Z,89.20
2018-01-03T14:04:58.632Z,88.20
2018-01-03T14:07:26.167Z,86.80
2018-01-03T14:09:53.628Z,86.90
2018-01-03T14:12:21.075Z,87.30
2018-01-03T14:14:48.528Z,87.20
2018-01-03T14:17:15.983Z,86.50
2018-01-03T14:19:43.445Z,87.00
2018-01-03T14:22:10.909Z,85.50
2018-01-03T14:24:38.368Z,86.40
2018-01-03T14:27:05.812Z,86.40
2018-01-03T14:29:33.363Z,86.70
2018-01-03T14:32:01.838Z,87.10
2018-01-03T14:34:29.293Z,86.90
2018-01-03T14:36:56.805Z,86.90
2018-01-03T14:39:24.275Z,86.50
2018-01-03T14:41:52.504Z,86.60
2018-01-03T14:44:19.951Z,86.50
2018-01-03T14:46:47.429Z,86.70
2018-01-03T14:49:14.921Z,86.40
2018-01-03T14:51:42.377Z,86.60
2018-01-03T14:54:09.925Z,87.40
2018-01-03T14:56:37.393Z,87.60
2018-01-03T14:59:05.641Z,88.50
2018-01-03T15:01:33.101Z,87.70
2018-01-03T15:04:00.559Z,87.30
2018-01-03T15:06:28.021Z,88.80
2018-01-03T15:08:55.473Z,88.00
2018-01-03T15:11:22.960Z,89.10
2018-01-03T15:13:51.178Z,90.10
2018-01-03T15:16:18.626Z,90.10
2018-01-03T15:18:46.084Z,90.40
2018-01-03T15:21:13.557Z,90.30
2018-01-03T15:23:40.999Z,90.00
2018-01-03T15:26:08.456Z,90.50
2018-01-03T15:28:35.947Z,90.70
2018-01-03T15:31:03.399Z,91.10
2018-01-03T15:33:30.852Z,91.10
2018-01-03T15:35:58.474Z,91.80
2018-01-03T15:38:25.982Z,92.10
2018-01-03T15:40:53.432Z,92.30
2018-01-03T15:43:20.880Z,92.60
2018-01-03T15:45:48.455Z,92.80
2018-01-03T15:48:16.007Z,93.20
2018-01-03T15:50:43.558Z,93.40
2018-01-03T15:53:11.020Z,93.50
2018-01-03T15:55:38.480Z,93.60
2018-01-03T15:58:05.949Z,93.90
2018-01-03T16:00:34.193Z,93.90
2018-01-03T16:03:01.648Z,93.90
2018-01-03T16:05:29.125Z,94.10
2018-01-03T16:07:56.584Z,94.00
2018-01-03T16:10:24.132Z,93.90
2018-01-03T16:12:51.593Z,94.40
2018-01-03T16:15:19.040Z,94.00
2018-01-03T16:17:46.600Z,93.90
2018-01-03T16:20:14.068Z,94.10
2018-01-03T16:22:41.529Z,93.90
2018-01-03T16:25:09.803Z,93.60
2018-01-03T16:27:37.361Z,93.60
2018-01-03T16:30:04.814Z,93.50
2018-01-03T16:32:32.268Z,93.40
2018-01-03T16:34:59.829Z,93.60
2018-01-03T16:37:27.275Z,93.40
2018-01-03T16:39:54.740Z,93.30
2018-01-03T16:42:22.305Z,93.10
2018-01-03T16:44:49.765Z,93.00
2018-01-03T16:47:17.220Z,93.00
2018-01-03T16:49:44.677Z,92.70
2018-01-03T16:52:17.930Z,92.80
2018-01-03T16:54:45.408Z,92.90
2018-01-03T16:57:12.979Z,92.90
2018-01-03T16:59:40.441Z,92.80
2018-01-03T17:02:07.919Z,92.80
2018-01-03T17:04:36.155Z,93.20
2018-01-03T17:07:03.621Z,93.20
2018-01-03T17:09:31.175Z,93.00
2018-01-03T17:11:58.736Z,93.30
2018-01-03T17:14:26.184Z,93.60
2018-01-03T17:16:53.654Z,93.60
2018-01-03T17:19:21.204Z,93.50
2018-01-03T17:21:48.663Z,93.70
2018-01-03T17:24:16.116Z,93.90
2018-01-03T17:26:43.567Z,93.90
2018-01-03T17:29:11.043Z,93.60
2018-01-03T17:31:38.504Z,93.90
2018-01-03T17:34:06.005Z,93.80
2018-01-03T17:36:33.508Z,93.70
2018-01-03T17:39:01.136Z,93.50
2018-01-03T17:41:28.624Z,93.60
2018-01-03T17:43:56.094Z,93.50
2018-01-03T17:46:23.701Z,93.70
2018-01-03T17:48:51.165Z,93.80
2018-01-03T17:51:18.620Z,94.00
2018-01-03T17:53:46.076Z,93.90
2018-01-03T17:56:13.569Z,94.20
2018-01-03T17:58:41.037Z,94.30
2018-01-03T18:01:08.502Z,94.20
2018-01-03T18:03:35.956Z,94.50
2018-01-03T18:06:03.516Z,94.50
2018-01-03T18:08:32.487Z,94.50
2018-01-03T18:11:00.046Z,94.50
2018-01-03T18:13:27.503Z,94.50
2018-01-03T18:15:55.079Z,94.50
2018-01-03T18:18:22.531Z,94.50
2018-01-03T18:20:49.989Z,94.00
2018-01-03T18:23:17.537Z,94.30
2018-01-03T18:25:45.056Z,94.20
2018-01-03T18:28:12.514Z,94.50
2018-01-03T18:30:39.982Z,94.50
2018-01-03T18:33:07.430Z,94.70
2018-01-03T18:35:34.885Z,94.30
2018-01-03T18:38:02.439Z,94.30
2018-01-03T18:40:29.998Z,94.10
2018-01-03T18:42:57.469Z,94.30
2018-01-03T18:45:24.945Z,94.20
2018-01-03T18:47:52.405Z,94.30
2018-01-03T18:50:19.952Z,94.30
2018-01-03T18:52:47.404Z,93.90
2018-01-03T18:55:14.859Z,93.90
2018-01-03T18:57:42.328Z,93.90
2018-01-03T19:00:09.891Z,93.90
2018-01-03T19:02:37.454Z,93.90
2018-01-03T19:05:04.914Z,93.90
2018-01-03T19:07:32.368Z,93.80
2018-01-03T19:09:59.920Z,93.90
2018-01-03T19:12:27.385Z,93.70
2018-01-03T19:14:54.841Z,93.70
2018-01-03T19:17:22.304Z,93.70
2018-01-03T19:19:49.848Z,93.70
2018-01-03T19:22:17.314Z,93.80
2018-01-03T19:24:44.777Z,93.80
2018-01-03T19:27:12.341Z,93.90
2018-01-03T19:29:39.889Z,93.70
2018-01-03T19:32:07.345Z,93.70
2018-01-03T19:34:35.583Z,93.70
2018-01-03T19:37:03.040Z,93.70
2018-01-03T19:39:30.502Z,93.60
2018-01-03T19:41:57.988Z,93.90
2018-01-03T19:44:25.615Z,93.70
2018-01-03T19:46:53.121Z,93.90
2018-01-03T19:49:21.375Z,94.00
2018-01-03T19:51:48.832Z,94.00
2018-01-03T19:54:16.400Z,93.80
2018-01-03T19:56:45.368Z,93.80
2018-01-03T19:59:12.840Z,93.80
2018-01-03T20:01:40.301Z,93.50
2018-01-03T20:04:07.818Z,93.60
2018-01-03T20:06:35.283Z,93.20
2018-01-03T20:09:02.740Z,93.30
2018-01-03T20:11:30.228Z,93.10
2018-01-03T20:13:57.680Z,93.20
2018-01-03T20:16:25.143Z,93.10
2018-01-03T20:18:52.600Z,92.60
2018-01-03T20:21:20.051Z,93.00
2018-01-03T20:23:47.516Z,92.20
2018-01-03T20:26:14.980Z,92.20
2018-01-03T20:28:42.438Z,92.30
2018-01-03T20:31:09.905Z,91.90
2018-01-03T20:33:38.162Z,92.10
2018-01-03T20:36:07.133Z,92.10
2018-01-03T20:38:34.618Z,92.10
2018-01-03T20:41:02.173Z,92.10
2018-01-03T20:43:29.628Z,92.10
2018-01-03T20:45:57.120Z,92.00
2018-01-03T20:48:24.594Z,92.10
2018-01-03T20:50:52.377Z,92.20
2018-01-03T20:53:19.947Z,92.50
2018-01-03T20:55:47.418Z,92.50
2018-01-03T20:58:14.886Z,92.80
2018-01-03T21:00:42.389Z,92.90
2018-01-03T21:03:09.893Z,92.80
2018-01-03T21:05:37.342Z,93.10
2018-01-03T21:08:04.816Z,93.30
2018-01-03T21:10:32.264Z,93.20
2018-01-03T21:12:59.721Z,93.30
2018-01-03T21:15:27.940Z,93.30
2018-01-03T21:17:55.446Z,93.30
2018-01-03T21:20:23.006Z,93.40
2018-01-03T21:22:50.460Z,93.50
2018-01-03T21:25:17.913Z,93.40
2018-01-03T21:27:45.372Z,93.30
2018-01-03T21:30:12.933Z,93.30
2018-01-03T21:32:40.397Z,93.20
2018-01-03T21:35:07.949Z,93.20
2018-01-03T21:37:35.505Z,92.90
2018-01-03T21:40:02.965Z,93.00
2018-01-03T21:42:30.522Z,92.70
2018-01-03T21:44:57.964Z,92.70
2018-01-03T21:47:25.484Z,93.10
2018-01-03T21:49:52.952Z,92.60
2018-01-03T21:52:20.479Z,92.70
2018-01-03T21:54:48.737Z,92.70
2018-01-03T21:57:17.020Z,92.70
2018-01-03T21:59:45.287Z,92.60
2018-01-03T22:02:14.276Z,92.50
2018-01-03T22:04:41.745Z,92.50
2018-01-03T22:07:09.985Z,92.40
2018-01-03T22:09:37.464Z,92.10
2018-01-03T22:12:05.748Z,92.20
2018-01-03T22:14:33.224Z,91.90
2018-01-03T22:17:01.456Z,91.70
2018-01-03T22:19:29.016Z,91.60
2018-01-03T22:21:56.488Z,91.40
2018-01-03T22:24:24.014Z,91.00
2018-01-03T22:26:51.467Z,90.80
2018-01-03T22:29:18.933Z,90.60
2018-01-03T22:31:46.399Z,90.70
2018-01-03T22:34:13.865Z,90.50
2018-01-03T22:36:41.324Z,90.30
2018-01-03T22:39:08.783Z,90.10
2018-01-03T22:41:36.279Z,90.00
2018-01-03T22:44:03.723Z,90.20
2018-01-03T22:46:31.968Z,90.30
2018-01-03T22:48:59.429Z,90.30
2018-01-03T22:51:26.888Z,90.30
2018-01-03T22:53:54.440Z,90.60
2018-01-03T22:56:21.919Z,90.10
2018-01-03T22:58:50.136Z,90.70
2018-01-03T23:01:17.621Z,90.30
2018-01-03T23:03:45.089Z,90.30
2018-01-03T23:06:12.549Z,90.40
2018-01-03T23:08:40.014Z,90.40
2018-01-03T23:11:07.469Z,90.00
2018-01-03T23:13:34.920Z,89.70
2018-01-03T23:16:02.426Z,90.00
2018-01-03T23:18:29.880Z,89.30
2018-01-03T23:20:57.336Z,89.90
2018-01-03T23:23:24.793Z,89.80
2018-01-03T23:25:52.256Z,88.60
2018-01-03T23:28:19.715Z,88.40
2018-01-03T23:30:47.178Z,88.00
2018-01-03T23:33:14.632Z,87.20
2018-01-03T23:35:42.130Z,87.00
2018-01-03T23:38:10.367Z,87.30
2018-01-03T23:40:37.833Z,87.30
2018-01-03T23:43:05.320Z,86.60
2018-01-03T23:45:32.770Z,87.50
2018-01-03T23:48:00.225Z,86.80
2018-01-03T23:50:27.692Z,87.20
2018-01-03T23:52:55.234Z,86.80
2018-01-03T23:55:22.797Z,86.60
2018-01-03T23:57:50.248Z,86.80
